Time;durP1;ratioP1;P1;durP2;ratioP2;P2;SDS_P1;SDS_P2;PMS_P1;PMS_P2;Temp;Humidity;BMP_temperature;BMP_pressure;BME280_temperature;BME280_humidity;BME280_pressure;Samples;Min_cycle;Max_cycle;Signal;HPM_P1;HPM_P2
2021/05/01 00:01:39;;;;;;;9.87;8.90;;;;;;;10.93;58.75;101413.53;6118612;29;20235;-58
2021/05/01 00:05:01;;;;;;;9.33;8.47;;;;;;;11.02;59.02;101405.72;6104006;28;20334;-57
2021/05/01 00:08:22;;;;;;;10.17;9.17;;;;;;;11.22;58.07;101409.16;6121745;28;20491;-57
2021/05/01 00:11:43;;;;;;;10.17;9.27;;;;;;;11.30;57.66;101410.84;6110844;29;20231;-55
2021/05/01 00:15:05;;;;;;;10.63;9.70;;;;;;;11.04;58.44;101407.44;6111025;28;20239;-56
2021/05/01 00:18:26;;;;;;;10.03;9.23;;;;;;;11.29;57.66;101409.13;6112922;29;20633;-58
2021/05/01 00:21:47;;;;;;;11.57;10.57;;;;;;;11.30;57.74;101409.13;6112378;28;20334;-57
2021/05/01 00:25:09;;;;;;;10.70;9.73;;;;;;;11.35;57.50;101401.28;6097506;28;20235;-57
2021/05/01 00:28:29;;;;;;;9.10;8.40;;;;;;;11.21;57.75;101403.94;6115422;28;20252;-57
2021/05/01 00:31:50;;;;;;;9.00;8.20;;;;;;;11.28;57.80;101405.63;6118611;29;20240;-57
2021/05/01 00:35:11;;;;;;;8.93;8.20;;;;;;;10.84;59.04;101402.25;6118359;29;20241;-57
2021/05/01 00:38:32;;;;;;;9.70;8.67;;;;;;;11.13;58.52;101401.34;6121581;28;20224;-57
2021/05/01 00:41:52;;;;;;;11.33;10.37;;;;;;;11.05;58.79;101405.72;6120033;29;20327;-59
2021/05/01 00:45:13;;;;;;;10.23;9.27;;;;;;;11.12;58.62;101403.94;6113758;29;20232;-58
2021/05/01 00:48:34;;;;;;;8.67;7.97;;;;;;;10.97;59.09;101404.84;6115414;29;20243;-57
2021/05/01 00:51:54;;;;;;;9.13;8.30;;;;;;;11.27;57.93;101410.88;6112997;29;20228;-54
2021/05/01 00:55:16;;;;;;;9.63;8.83;;;;;;;11.14;58.62;101405.66;6109238;29;20323;-56
2021/05/01 00:58:36;;;;;;;9.17;8.30;;;;;;;10.99;58.65;101405.69;6100135;28;20255;-59
2021/05/01 01:01:58;;;;;;;8.87;8.07;;;;;;;11.16;58.50;101401.31;6116935;29;20251;-58
2021/05/01 01:05:19;;;;;;;9.33;8.63;;;;;;;11.09;58.53;101399.63;6115851;29;20231;-56
2021/05/01 01:08:39;;;;;;;9.37;8.57;;;;;;;11.10;58.42;101393.53;6118821;28;20236;-55
2021/05/01 01:12:01;;;;;;;7.73;7.13;;;;;;;11.13;58.50;101375.28;6120127;29;20508;-58
2021/05/01 01:15:23;;;;;;;8.37;7.70;;;;;;;11.11;58.08;101383.94;6119209;28;20239;-58
2021/05/01 01:18:43;;;;;;;8.03;7.43;;;;;;;11.11;58.01;101382.25;6117879;28;20610;-55
2021/05/01 01:22:14;;;;;;;9.53;8.03;;;;;;;10.89;58.93;101385.75;6115544;29;20268;-53
2021/05/01 01:25:34;;;;;;;9.00;8.27;;;;;;;11.10;58.49;101385.69;6114916;29;20244;-58
2021/05/01 01:28:55;;;;;;;10.17;9.27;;;;;;;10.98;58.68;101390.94;6113657;28;20243;-56
2021/05/01 01:32:16;;;;;;;8.90;8.23;;;;;;;10.93;58.88;101380.50;6118996;29;20428;-57
2021/05/01 01:35:39;;;;;;;10.67;9.77;;;;;;;11.00;58.36;101382.25;6106772;29;20263;-55
2021/05/01 01:39:00;;;;;;;11.60;10.60;;;;;;;10.79;59.06;101380.53;6112864;29;20661;-57
2021/05/01 01:42:21;;;;;;;9.10;8.30;;;;;;;10.67;59.05;101379.69;6114398;29;20532;-58
2021/05/01 01:45:42;;;;;;;9.50;8.80;;;;;;;10.82;58.79;101377.06;6115859;29;20334;-60
2021/05/01 01:49:02;;;;;;;10.43;9.53;;;;;;;10.85;58.55;101377.06;6111823;28;20239;-57
2021/05/01 01:52:23;;;;;;;9.30;8.50;;;;;;;11.03;58.32;101373.53;6120587;28;20247;-58
2021/05/01 01:55:44;;;;;;;9.83;8.90;;;;;;;10.99;58.35;101367.50;6110423;29;20864;-54
2021/05/01 01:59:05;;;;;;;10.20;9.17;;;;;;;11.08;58.17;101363.13;6111733;29;20248;-58
2021/05/01 02:02:27;;;;;;;9.23;8.43;;;;;;;11.04;57.69;101370.06;6113990;29;20239;-57
2021/05/01 02:05:48;;;;;;;10.00;9.17;;;;;;;10.80;58.32;101365.78;6105547;29;20256;-56
2021/05/01 02:09:08;;;;;;;11.30;10.20;;;;;;;10.76;58.74;101369.25;6117739;28;20974;-58
2021/05/01 02:12:29;;;;;;;9.73;8.87;;;;;;;10.87;58.76;101361.44;6108788;28;20232;-58
2021/05/01 02:15:50;;;;;;;9.50;8.63;;;;;;;10.62;58.73;101364.03;6109308;29;20236;-58
2021/05/01 02:19:10;;;;;;;9.83;8.93;;;;;;;10.71;58.67;101365.78;6092149;29;20323;-57
2021/05/01 02:22:30;;;;;;;10.07;9.20;;;;;;;10.79;58.62;101364.03;6127279;29;20239;-57
2021/05/01 02:25:51;;;;;;;10.77;9.90;;;;;;;10.69;58.94;101357.97;6116476;29;20255;-57
2021/05/01 02:29:12;;;;;;;9.77;8.80;;;;;;;10.54;58.92;101374.47;6116570;28;20231;-55
2021/05/01 02:32:33;;;;;;;11.17;9.03;;;;;;;10.19;60.10;101366.59;6115116;28;20232;-59
2021/05/01 02:35:53;;;;;;;10.97;10.03;;;;;;;10.38;59.01;101371.00;6112631;28;20247;-57
2021/05/01 02:39:14;;;;;;;9.50;8.73;;;;;;;10.30;59.45;101364.03;6113898;28;20251;-58
2021/05/01 02:42:35;;;;;;;10.97;9.87;;;;;;;10.38;59.14;101364.94;6114508;28;20248;-58
2021/05/01 02:45:56;;;;;;;10.07;9.07;;;;;;;10.34;59.50;101356.25;6112611;28;20259;-58
2021/05/01 02:49:16;;;;;;;9.53;8.63;;;;;;;10.32;59.45;101357.97;6114236;28;20232;-57
2021/05/01 02:52:37;;;;;;;9.90;8.90;;;;;;;10.09;60.50;101365.72;6117094;28;20242;-56
2021/05/01 02:55:57;;;;;;;10.57;9.57;;;;;;;10.20;59.82;101347.53;6111707;29;20318;-58
2021/05/01 02:59:17;;;;;;;12.07;9.83;;;;;;;10.53;58.99;101340.63;6116178;28;20251;-55
2021/05/01 03:02:40;;;;;;;10.87;9.77;;;;;;;10.58;59.23;101334.53;6118190;29;20506;-56
2021/05/01 03:06:01;;;;;;;11.07;10.07;;;;;;;10.71;58.90;101329.31;6114344;28;20232;-57
2021/05/01 03:09:21;;;;;;;11.97;10.83;;;;;;;10.66;59.11;101331.91;6118006;28;20232;-58
2021/05/01 03:12:43;;;;;;;11.13;10.00;;;;;;;10.72;58.82;101331.94;6108815;29;20878;-58
2021/05/01 03:16:04;;;;;;;10.93;9.97;;;;;;;10.76;58.71;101330.16;6112630;28;20228;-56
2021/05/01 03:19:25;;;;;;;10.47;9.57;;;;;;;10.70;58.74;101322.38;6120928;29;20240;-57
2021/05/01 03:22:47;;;;;;;10.70;9.50;;;;;;;10.53;59.19;101315.44;6113411;29;20231;-56
2021/05/01 03:26:07;;;;;;;11.50;10.40;;;;;;;10.16;60.37;101319.78;6118601;29;20247;-58
2021/05/01 03:29:28;;;;;;;10.50;9.23;;;;;;;10.21;59.76;101318.03;6118216;28;20514;-56
2021/05/01 03:32:48;;;;;;;9.83;8.90;;;;;;;10.28;60.04;101311.97;6111173;29;20326;-57
2021/05/01 03:36:10;;;;;;;9.97;9.17;;;;;;;10.30;60.12;101310.25;6119597;29;20342;-56
2021/05/01 03:39:30;;;;;;;9.77;8.87;;;;;;;10.47;59.39;101314.56;6118866;29;20228;-58
2021/05/01 03:42:50;;;;;;;10.80;9.80;;;;;;;10.34;60.27;101316.34;6118712;29;20240;-57
2021/05/01 03:46:11;;;;;;;12.13;10.87;;;;;;;10.42;59.29;101317.19;6115055;29;20236;-57
2021/05/01 03:49:32;;;;;;;11.97;10.57;;;;;;;10.42;59.99;101318.03;6111494;29;20236;-57
2021/05/01 03:52:53;;;;;;;10.97;10.07;;;;;;;10.21;60.09;101318.88;6119939;29;20231;-59
2021/05/01 03:56:14;;;;;;;10.97;9.87;;;;;;;10.25;60.17;101314.56;6119305;29;20279;-55
2021/05/01 03:59:34;;;;;;;10.13;9.13;;;;;;;10.30;60.12;101323.28;6119552;29;20240;-57
2021/05/01 04:02:54;;;;;;;10.77;9.87;;;;;;;10.35;59.81;101313.72;6119940;29;20315;-57
2021/05/01 04:06:15;;;;;;;10.17;9.27;;;;;;;10.03;60.68;101314.53;6118172;29;20279;-58
2021/05/01 04:09:36;;;;;;;11.30;10.17;;;;;;;10.23;60.24;101321.50;6117747;29;20228;-58
2021/05/01 04:12:57;;;;;;;9.67;8.77;;;;;;;10.32;60.15;101316.31;6118277;29;20347;-60
2021/05/01 04:16:18;;;;;;;13.17;11.60;;;;;;;10.25;59.96;101320.66;6118695;29;20260;-58
2021/05/01 04:19:39;;;;;;;10.50;9.47;;;;;;;10.10;60.35;101320.63;6108324;29;20240;-57
2021/05/01 04:22:59;;;;;;;11.03;10.13;;;;;;;10.32;59.84;101321.53;6115252;29;20247;-59
2021/05/01 04:26:21;;;;;;;11.73;10.40;;;;;;;10.04;60.70;101325.81;6119624;28;20243;-53
2021/05/01 04:29:41;;;;;;;10.63;9.73;;;;;;;10.27;59.62;101327.56;6118537;28;20240;-57
2021/05/01 04:33:02;;;;;;;11.60;10.50;;;;;;;9.82;61.09;101320.56;6119493;29;20319;-54
2021/05/01 04:36:23;;;;;;;11.10;10.10;;;;;;;10.11;60.64;101321.50;6107754;29;20243;-58
2021/05/01 04:39:43;;;;;;;11.57;10.50;;;;;;;10.30;59.91;101328.47;6118583;29;20235;-58
2021/05/01 04:43:06;;;;;;;11.37;10.10;;;;;;;10.08;59.89;101329.28;6115964;29;20236;-59
2021/05/01 04:46:27;;;;;;;10.60;9.53;;;;;;;9.57;60.80;101335.25;6112977;29;20239;-56
2021/05/01 04:49:47;;;;;;;12.03;10.73;;;;;;;9.10;61.66;101329.84;6115279;28;20248;-58
2021/05/01 04:53:08;;;;;;;12.30;11.10;;;;;;;9.53;60.94;101328.28;6120407;29;20264;-58
2021/05/01 04:56:29;;;;;;;11.33;10.23;;;;;;;9.49;60.83;101339.53;6119875;28;20641;-60
2021/05/01 04:59:50;;;;;;;10.97;9.33;;;;;;;9.77;59.69;101337.03;6115019;29;20261;-55
2021/05/01 05:03:11;;;;;;;10.47;9.50;;;;;;;9.39;60.78;101330.84;6119795;29;20223;-57
2021/05/01 05:06:32;;;;;;;11.70;8.80;;;;;;;9.84;59.01;101338.78;6116461;29;20239;-58
2021/05/01 05:09:52;;;;;;;13.10;10.20;;;;;;;9.88;58.57;101340.53;6115679;28;20244;-56
2021/05/01 05:13:13;;;;;;;10.10;9.10;;;;;;;10.01;58.26;101347.50;6113396;29;20509;-58
2021/05/01 05:16:34;;;;;;;11.77;9.93;;;;;;;9.56;58.63;101349.13;6112751;29;20239;-58
2021/05/01 05:19:55;;;;;;;10.03;9.13;;;;;;;9.59;59.34;101351.72;6110553;29;20240;-59
2021/05/01 05:23:15;;;;;;;9.30;8.40;;;;;;;10.14;57.92;101352.72;6114938;28;20232;-58
2021/05/01 05:26:36;;;;;;;9.87;8.77;;;;;;;9.66;58.69;101350.88;6117573;29;20356;-57
2021/05/01 05:29:57;;;;;;;10.63;9.63;;;;;;;9.77;58.53;101348.31;6114425;29;20232;-56
2021/05/01 05:33:18;;;;;;;10.23;9.23;;;;;;;9.92;57.86;101347.47;6131348;28;20240;-58
2021/05/01 05:36:40;;;;;;;9.23;8.43;;;;;;;9.54;58.55;101360.34;6112566;29;20228;-58
2021/05/01 05:40:01;;;;;;;9.40;8.60;;;;;;;9.51;58.79;101356.03;6117427;29;20236;-55
2021/05/01 05:43:21;;;;;;;8.97;8.07;;;;;;;9.65;58.23;101354.34;6115293;29;20224;-58
2021/05/01 05:46:42;;;;;;;10.27;9.27;;;;;;;9.82;57.83;101353.53;6110777;29;20236;-57
2021/05/01 05:50:04;;;;;;;10.00;9.03;;;;;;;10.00;57.23;101350.97;6116894;29;20240;-57
2021/05/01 05:53:24;;;;;;;8.30;7.60;;;;;;;9.99;57.19;101353.56;6113486;29;20248;-57
2021/05/01 05:56:44;;;;;;;9.53;8.53;;;;;;;9.98;57.00;101354.44;6108905;29;20236;-57
2021/05/01 06:00:06;;;;;;;10.10;9.20;;;;;;;9.99;56.74;101351.84;6117881;29;20231;-58
2021/05/01 06:03:30;;;;;;;10.10;9.30;;;;;;;10.15;56.48;101352.72;6118440;29;20547;-57
2021/05/01 06:07:00;;;;;;;10.37;9.37;;;;;;;9.87;57.51;101359.63;6116468;28;20294;-57
2021/05/01 06:10:21;;;;;;;9.43;8.53;;;;;;;10.13;56.61;101361.41;6110633;28;20259;-57
2021/05/01 06:13:42;;;;;;;10.33;9.23;;;;;;;10.52;55.68;101349.31;6113541;28;20777;-57
2021/05/01 06:17:03;;;;;;;11.57;10.47;;;;;;;10.71;55.23;101348.41;6115623;29;20694;-57
2021/05/01 06:20:26;;;;;;;9.03;8.23;;;;;;;10.24;55.77;101355.34;6116992;29;20224;-58
2021/05/01 06:23:48;;;;;;;10.70;8.67;;;;;;;10.13;56.64;101357.06;6112242;29;20469;-55
2021/05/01 06:27:09;;;;;;;9.00;8.03;;;;;;;10.22;56.74;101349.25;6116604;28;20239;-58
2021/05/01 06:30:29;;;;;;;10.67;9.07;;;;;;;10.18;56.54;101354.47;6103642;28;20241;-58
2021/05/01 06:33:51;;;;;;;9.57;8.40;;;;;;;10.27;56.15;101351.84;6100143;28;20240;-55
2021/05/01 06:37:13;;;;;;;13.40;7.90;;;;;;;10.25;55.70;101338.88;6113972;28;20239;-58
2021/05/01 06:40:38;;;;;;;8.83;7.93;;;;;;;10.33;56.20;101341.50;6119617;29;20247;-58
2021/05/01 06:44:03;;;;;;;8.83;8.03;;;;;;;10.54;55.22;101326.72;6098775;28;20321;-57
2021/05/01 06:47:25;;;;;;;9.17;8.33;;;;;;;10.38;54.98;101326.72;6118843;29;20227;-57
2021/05/01 06:50:46;;;;;;;9.00;8.13;;;;;;;10.82;54.71;101327.56;6115388;29;20274;-60
2021/05/01 06:54:11;;;;;;;9.63;8.83;;;;;;;10.62;55.15;101325.88;6106341;29;20232;-57
2021/05/01 06:57:35;;;;;;;8.00;7.20;;;;;;;11.04;54.13;101323.16;6111793;28;20255;-58
2021/05/01 07:00:57;;;;;;;9.07;8.10;;;;;;;10.70;54.71;101336.28;6110939;29;20254;-56
2021/05/01 07:04:18;;;;;;;8.70;7.90;;;;;;;11.09;54.22;101337.06;6109032;29;20236;-59
2021/05/01 07:07:39;;;;;;;8.23;7.53;;;;;;;10.67;54.90;101338.88;6116206;29;20254;-58
2021/05/01 07:11:01;;;;;;;8.53;7.83;;;;;;;10.79;54.41;101341.44;6117624;29;20235;-57
2021/05/01 07:14:23;;;;;;;9.70;8.13;;;;;;;10.70;54.50;101349.31;6114597;28;20240;-56
2021/05/01 07:17:46;;;;;;;8.00;7.30;;;;;;;10.41;55.61;101362.31;6117881;28;20318;-56
2021/05/01 07:21:08;;;;;;;8.30;7.43;;;;;;;10.46;56.52;101359.72;6107971;28;20401;-57
2021/05/01 07:24:28;;;;;;;9.07;8.27;;;;;;;10.42;55.45;101358.84;6107222;28;20261;-58
2021/05/01 07:27:53;;;;;;;9.10;8.00;;;;;;;10.64;56.03;101352.78;6111908;29;20504;-56
2021/05/01 07:31:19;;;;;;;9.00;8.20;;;;;;;11.36;54.08;101350.84;6105889;28;20618;-58
2021/05/01 07:34:49;;;;;;;8.30;7.20;;;;;;;11.25;54.01;101352.66;6115246;28;20271;-54
2021/05/01 07:38:12;;;;;;;9.13;8.33;;;;;;;11.11;53.99;101350.97;6107950;28;20232;-55
2021/05/01 07:41:34;;;;;;;9.93;8.93;;;;;;;11.64;53.72;101356.84;6113987;29;20236;-53
2021/05/01 07:44:57;;;;;;;9.20;8.30;;;;;;;11.31;54.33;101357.84;6117028;28;20246;-55
2021/05/01 07:48:20;;;;;;;9.07;8.27;;;;;;;11.50;53.59;101359.50;6111307;29;20510;-55
2021/05/01 07:51:40;;;;;;;9.83;8.93;;;;;;;12.05;52.67;101358.38;6114341;29;20247;-57
2021/05/01 07:55:01;;;;;;;10.03;8.97;;;;;;;11.27;53.83;101363.94;6113259;29;20754;-54
2021/05/01 07:58:22;;;;;;;9.37;8.43;;;;;;;11.50;56.13;101361.25;6103377;28;20240;-57
2021/05/01 08:01:43;;;;;;;11.27;9.57;;;;;;;12.55;53.15;101354.50;6113279;29;20596;-56
2021/05/01 08:05:06;;;;;;;9.77;8.73;;;;;;;13.57;51.14;101353.44;6114483;29;20232;-58
2021/05/01 08:08:26;;;;;;;8.63;7.83;;;;;;;12.49;52.87;101349.34;6112874;29;20240;-57
2021/05/01 08:11:46;;;;;;;8.50;7.73;;;;;;;13.08;51.23;101338.31;6119560;29;20240;-57
2021/05/01 08:15:08;;;;;;;10.33;8.57;;;;;;;13.84;49.29;101336.53;6118063;29;20794;-65
2021/05/01 08:18:30;;;;;;;8.63;7.93;;;;;;;13.64;50.64;101328.94;6111767;28;20228;-65
2021/05/01 08:21:51;;;;;;;7.90;7.10;;;;;;;13.57;50.51;101332.50;6107032;28;20237;-64
2021/05/01 08:25:12;;;;;;;9.77;8.77;;;;;;;13.04;49.66;101324.41;6091598;29;20244;-65
2021/05/01 08:28:33;;;;;;;8.50;7.67;;;;;;;13.74;49.57;101317.44;6096754;28;20232;-65
2021/05/01 08:31:54;;;;;;;8.93;8.03;;;;;;;13.39;49.00;101324.00;6100202;29;20536;-65
2021/05/01 08:35:16;;;;;;;8.30;7.60;;;;;;;13.03;50.27;101325.31;6104735;28;20232;-66
2021/05/01 08:38:37;;;;;;;9.60;8.67;;;;;;;13.28;48.43;101330.22;6103453;29;20282;-66
2021/05/01 08:41:58;;;;;;;8.77;7.87;;;;;;;13.04;50.22;101324.41;6109097;28;20240;-64
2021/05/01 08:45:20;;;;;;;7.47;6.77;;;;;;;13.08;49.73;101327.84;6119429;28;20228;-65
2021/05/01 08:48:44;;;;;;;7.87;7.17;;;;;;;13.69;49.30;101326.28;6102582;28;20247;-65
2021/05/01 08:52:05;;;;;;;8.90;8.20;;;;;;;14.22;46.69;101306.25;6102439;29;20239;-66
2021/05/01 08:55:28;;;;;;;7.67;6.83;;;;;;;14.81;45.98;101315.75;6105794;29;20236;-66
2021/05/01 08:58:49;;;;;;;8.10;7.37;;;;;;;15.24;45.03;101310.53;6107836;29;20511;-65
2021/05/01 09:02:10;;;;;;;8.00;7.27;;;;;;;14.63;45.72;101311.69;6108147;29;20247;-64
2021/05/01 09:05:31;;;;;;;8.80;7.80;;;;;;;14.77;45.31;101299.19;6098905;29;20244;-64
2021/05/01 09:08:56;;;;;;;7.63;6.87;;;;;;;14.79;46.10;101307.91;6098920;28;20252;-65
2021/05/01 09:12:34;;;;;;;7.23;6.63;;;;;;;14.21;45.96;101303.66;6107575;28;20724;-65
2021/05/01 09:16:02;;;;;;;7.57;6.87;;;;;;;15.04;44.55;101305.66;6099737;28;20339;-65
2021/05/01 09:19:34;;;;;;;7.80;7.07;;;;;;;15.48;43.73;101306.50;6102665;28;20315;-66
2021/05/01 09:22:58;;;;;;;8.53;7.73;;;;;;;15.38;43.60;101297.13;6104759;28;20236;-64
2021/05/01 09:26:34;;;;;;;7.57;6.87;;;;;;;15.31;43.94;101298.13;6106432;29;20231;-65
2021/05/01 09:29:55;;;;;;;9.43;8.17;;;;;;;15.49;43.72;101289.88;6104309;29;20242;-64
2021/05/01 09:33:21;;;;;;;8.30;6.80;;;;;;;15.28;43.07;101299.06;6106385;28;20236;-65
2021/05/01 09:36:45;;;;;;;7.07;6.47;;;;;;;15.85;42.88;101292.59;6107416;29;20243;-64
2021/05/01 09:40:07;;;;;;;7.57;6.87;;;;;;;15.67;42.23;101287.75;6100329;28;20569;-65
2021/05/01 09:43:28;;;;;;;6.47;5.87;;;;;;;15.62;42.59;101281.72;6105915;29;20235;-66
2021/05/01 09:46:51;;;;;;;8.17;7.37;;;;;;;15.95;41.82;101282.72;6107026;28;20260;-64
2021/05/01 09:50:20;;;;;;;6.57;5.53;;;;;;;16.26;41.38;101282.81;6107914;28;20240;-66
2021/05/01 09:53:41;;;;;;;8.83;7.30;;;;;;;15.46;41.72;101281.19;6104089;28;20235;-55
2021/05/01 09:57:04;;;;;;;10.80;9.80;;;;;;;16.05;42.26;101280.75;6101598;29;20236;-55
2021/05/01 10:00:25;;;;;;;7.53;6.83;;;;;;;15.54;41.46;101277.50;6091332;29;20232;-56
2021/05/01 10:03:47;;;;;;;7.93;7.23;;;;;;;15.22;41.89;101279.94;6103403;29;20247;-56
2021/05/01 10:07:09;;;;;;;7.17;6.57;;;;;;;15.85;40.80;101282.06;6108410;29;20371;-51
2021/05/01 10:10:39;;;;;;;7.57;6.83;;;;;;;15.75;41.91;101278.81;6096947;28;20243;-52
2021/05/01 10:14:01;;;;;;;6.80;6.10;;;;;;;17.07;39.73;101269.28;6107935;28;20224;-56
2021/05/01 10:17:28;;;;;;;7.40;6.80;;;;;;;17.82;39.06;101270.56;6111204;29;20232;-55
2021/05/01 10:20:51;;;;;;;7.40;6.80;;;;;;;17.78;38.25;101251.34;6110788;29;20239;-54
2021/05/01 10:24:12;;;;;;;7.47;6.87;;;;;;;17.20;38.67;101264.53;6099067;28;20247;-55
2021/05/01 10:27:44;;;;;;;8.27;7.53;;;;;;;16.89;39.58;101248.78;6103267;29;20247;-55
2021/05/01 10:31:11;;;;;;;9.37;6.37;;;;;;;17.44;38.21;101236.59;6098998;28;20235;-54
2021/05/01 10:34:33;;;;;;;7.33;6.73;;;;;;;16.90;39.76;101240.84;6095030;28;20244;-53
2021/05/01 10:37:58;;;;;;;7.80;6.27;;;;;;;17.08;39.26;101226.28;6101950;29;20241;-56
2021/05/01 10:41:19;;;;;;;8.50;7.67;;;;;;;16.82;39.69;101226.19;6099063;28;20264;-56
2021/05/01 10:44:40;;;;;;;7.33;6.73;;;;;;;17.34;39.45;101219.38;6097876;29;20277;-55
2021/05/01 10:48:09;;;;;;;8.50;7.37;;;;;;;17.63;38.75;101202.66;6102329;28;20633;-53
2021/05/01 10:51:31;;;;;;;7.30;6.60;;;;;;;17.27;38.20;101207.28;6102247;29;20345;-56
2021/05/01 10:55:00;;;;;;;7.07;6.40;;;;;;;17.24;38.18;101215.31;6096344;28;20376;-57
2021/05/01 10:58:36;;;;;;;7.53;6.83;;;;;;;17.18;38.70;101216.34;6093312;28;20236;-60
2021/05/01 11:02:00;;;;;;;6.60;6.07;;;;;;;16.62;38.41;101216.19;6086822;29;20227;-59
2021/05/01 11:05:21;;;;;;;8.77;7.93;;;;;;;15.53;41.07;101228.53;6108186;29;20858;-57
2021/05/01 11:08:50;;;;;;;8.00;7.20;;;;;;;15.85;40.33;101205.06;6108415;29;20614;-56
2021/05/01 11:12:13;;;;;;;7.30;6.70;;;;;;;17.28;38.63;101211.66;6108908;29;20242;-53
2021/05/01 11:15:45;;;;;;;7.73;7.13;;;;;;;17.20;38.21;101211.03;6114283;28;20231;-54
2021/05/01 11:19:06;;;;;;;8.07;7.40;;;;;;;17.74;36.88;101199.69;6105444;28;20232;-54
2021/05/01 11:22:27;;;;;;;7.93;7.33;;;;;;;17.44;37.02;101212.03;6098771;29;20323;-57
2021/05/01 11:25:49;;;;;;;9.03;8.10;;;;;;;15.87;39.07;101212.00;6098788;29;20232;-56
2021/05/01 11:29:12;;;;;;;12.37;11.30;;;;;;;16.42;39.33;101206.22;6101031;29;20246;-54
2021/05/01 11:32:32;;;;;;;8.37;7.73;;;;;;;17.44;38.70;101202.38;6100585;28;20232;-55
2021/05/01 11:35:53;;;;;;;8.93;8.17;;;;;;;17.83;39.83;101207.25;6098912;29;20356;-55
2021/05/01 11:39:15;;;;;;;7.00;6.40;;;;;;;18.26;38.76;101197.94;6109758;28;20228;-53
2021/05/01 11:42:36;;;;;;;9.60;8.80;;;;;;;18.67;36.44;101189.47;6109091;29;20228;-55
2021/05/01 11:46:10;;;;;;;10.57;9.47;;;;;;;18.86;38.17;101202.84;6111200;28;20324;-55
2021/05/01 11:49:32;;;;;;;8.07;7.33;;;;;;;18.20;39.36;101200.78;6103215;28;20518;-57
2021/05/01 11:53:11;;;;;;;7.30;6.60;;;;;;;18.19;40.11;101203.47;6102908;29;20236;-56
2021/05/01 11:56:45;;;;;;;8.87;7.87;;;;;;;17.79;39.43;101195.09;6105142;29;20602;-56
2021/05/01 12:00:06;;;;;;;9.30;7.27;;;;;;;17.40;37.37;101195.47;6102204;28;20227;-56
2021/05/01 12:03:33;;;;;;;7.60;6.57;;;;;;;17.77;39.86;101182.91;6101592;28;20232;-57
2021/05/01 12:06:58;;;;;;;6.30;5.80;;;;;;;17.57;40.62;101187.06;6103881;29;20227;-54
2021/05/01 12:10:20;;;;;;;7.17;6.67;;;;;;;17.09;39.19;101196.41;6100510;28;20232;-54
2021/05/01 12:13:42;;;;;;;6.30;5.70;;;;;;;16.33;42.19;101195.03;6102340;29;20611;-57
2021/05/01 12:17:10;;;;;;;7.93;7.17;;;;;;;14.86;41.82;101195.91;6105673;29;20589;-56
2021/05/01 12:20:35;;;;;;;8.80;8.00;;;;;;;14.81;42.08;101190.78;6099829;28;20235;-55
2021/05/01 12:23:58;;;;;;;8.43;7.73;;;;;;;14.51;42.87;101195.69;6100272;29;20236;-54
2021/05/01 12:27:53;;;;;;;7.93;7.23;;;;;;;14.88;42.79;101179.25;6104152;29;20247;-51
2021/05/01 12:31:13;;;;;;;8.27;7.57;;;;;;;15.18;42.98;101194.34;6101679;29;20263;-58
2021/05/01 12:35:07;;;;;;;10.93;9.83;;;;;;;14.34;44.05;101193.38;6103954;29;20252;-54
2021/05/01 12:38:30;;;;;;;9.80;9.00;;;;;;;14.04;46.69;101199.19;6039407;29;22052;-53
2021/05/01 12:41:50;;;;;;;11.23;10.17;;;;;;;13.85;49.71;101201.25;6049612;29;20602;-53
2021/05/01 12:45:32;;;;;;;10.73;9.87;;;;;;;12.30;55.91;101206.75;6102774;28;20254;-51
2021/05/01 12:48:55;;;;;;;10.57;9.60;;;;;;;12.44;57.12;101201.38;6111511;28;21523;-53
2021/05/01 12:52:21;;;;;;;11.13;10.20;;;;;;;12.60;57.55;101205.53;6103103;29;20252;-56
2021/05/01 12:56:13;;;;;;;13.93;12.63;;;;;;;12.09;61.49;101215.63;6102290;29;20318;-54
2021/05/01 12:59:37;;;;;;;12.70;11.53;;;;;;;12.52;59.96;101213.47;6096087;29;20232;-55
2021/05/01 13:03:16;;;;;;;13.13;12.03;;;;;;;12.59;57.56;101209.03;6098508;28;20526;-56
2021/05/01 13:06:37;;;;;;;12.60;11.30;;;;;;;13.52;55.20;101203.50;6092152;29;20321;-56
2021/05/01 13:09:58;;;;;;;10.57;9.57;;;;;;;13.41;53.26;101206.28;6094625;28;20231;-56
2021/05/01 13:13:32;;;;;;;9.87;9.07;;;;;;;13.37;54.82;101204.59;6091996;29;20239;-57
2021/05/01 13:17:06;;;;;;;9.47;8.60;;;;;;;13.82;51.49;101202.13;6103099;29;20232;-54
2021/05/01 13:20:27;;;;;;;9.90;9.10;;;;;;;13.72;51.78;101197.94;6100400;29;20232;-55
2021/05/01 13:23:48;;;;;;;7.93;7.33;;;;;;;13.10;51.70;101204.03;6100559;29;20263;-56
2021/05/01 13:27:11;;;;;;;9.53;8.63;;;;;;;13.35;52.40;101196.75;6102286;29;20236;-55
2021/05/01 13:30:33;;;;;;;9.57;8.77;;;;;;;14.35;50.23;101192.50;6094516;29;20613;-58
2021/05/01 13:33:54;;;;;;;10.60;9.82;;;;;;;14.81;48.67;101195.13;6103019;28;20800;-56
2021/05/01 13:37:15;;;;;;;10.63;9.73;;;;;;;14.78;49.67;101193.44;6104034;29;20259;-58
2021/05/01 13:40:38;;;;;;;12.50;11.40;;;;;;;13.41;57.45;101210.66;6100173;29;20384;-58
2021/05/01 13:43:59;;;;;;;11.57;10.57;;;;;;;11.65;62.91;101209.00;6093404;29;20236;-55
2021/05/01 13:47:22;;;;;;;12.57;11.37;;;;;;;12.05;62.32;101201.75;6101379;29;20252;-57
2021/05/01 13:50:44;;;;;;;11.57;10.67;;;;;;;12.90;58.51;101201.69;6104066;29;20487;-56
2021/05/01 13:54:07;;;;;;;11.27;10.37;;;;;;;13.05;58.41;101192.81;6110050;29;20658;-56
2021/05/01 13:57:28;;;;;;;12.80;11.70;;;;;;;13.37;57.33;101194.13;6109587;29;20763;-54
2021/05/01 14:00:51;;;;;;;10.60;9.77;;;;;;;12.85;58.38;101189.56;6106828;28;20832;-58
2021/05/01 14:04:28;;;;;;;10.70;9.80;;;;;;;13.09;57.17;101177.94;6101087;29;20232;-53
2021/05/01 14:07:50;;;;;;;12.37;11.27;;;;;;;13.13;58.03;101174.41;6089879;28;20231;-57
2021/05/01 14:11:12;;;;;;;12.73;11.43;;;;;;;13.20;57.18;101171.69;6098786;29;20505;-58
2021/05/01 14:14:33;;;;;;;13.20;11.97;;;;;;;13.46;57.03;101165.22;6106525;29;20634;-55
2021/05/01 14:18:03;;;;;;;11.73;10.73;;;;;;;13.53;56.32;101161.63;6088893;29;20236;-57
2021/05/01 14:21:26;;;;;;;9.60;8.80;;;;;;;13.66;56.51;101164.03;6101300;29;20236;-55
2021/05/01 14:24:46;;;;;;;9.73;8.70;;;;;;;14.01;55.28;101159.94;6098304;28;20535;-57
2021/05/01 14:28:18;;;;;;;10.70;9.70;;;;;;;14.13;55.65;101164.97;6090854;29;20224;-53
2021/05/01 14:31:39;;;;;;;11.20;10.30;;;;;;;14.46;54.81;101157.34;6100491;29;20412;-59
2021/05/01 14:35:01;;;;;;;10.70;9.80;;;;;;;14.57;54.10;101163.28;6100132;29;20929;-57
2021/05/01 14:38:24;;;;;;;11.07;10.17;;;;;;;14.64;54.28;101156.19;6100426;29;20255;-59
2021/05/01 14:41:44;;;;;;;11.80;10.70;;;;;;;14.53;54.51;101166.84;6100133;29;20232;-58
2021/05/01 14:45:07;;;;;;;12.67;11.63;;;;;;;15.09;52.56;101151.69;6098990;29;20501;-58
2021/05/01 14:48:27;;;;;;;10.87;9.97;;;;;;;15.00;51.68;101148.41;6099081;29;20247;-56
2021/05/01 14:51:55;;;;;;;10.03;9.13;;;;;;;15.28;51.45;101140.78;6102441;29;20235;-57
2021/05/01 14:55:24;;;;;;;9.37;8.57;;;;;;;15.06;51.54;101149.16;6094490;28;20613;-57
2021/05/01 14:58:52;;;;;;;12.33;11.20;;;;;;;15.37;51.89;101140.53;6100414;29;20239;-57
2021/05/01 15:02:16;;;;;;;11.37;10.47;;;;;;;15.49;51.71;101145.53;6102712;29;20322;-58
2021/05/01 15:05:37;;;;;;;11.27;10.27;;;;;;;15.39;51.72;101149.25;6098596;29;20318;-56
2021/05/01 15:08:57;;;;;;;10.43;9.63;;;;;;;15.30;51.67;101136.38;6099434;29;20243;-57
2021/05/01 15:12:19;;;;;;;11.67;10.67;;;;;;;15.19;51.65;101139.22;6112550;28;20322;-58
2021/05/01 15:15:41;;;;;;;11.60;10.60;;;;;;;15.01;52.81;101140.50;6115193;29;20231;-57
2021/05/01 15:19:13;;;;;;;12.03;11.03;;;;;;;15.64;54.39;101138.16;6116061;28;20240;-56
2021/05/01 15:22:34;;;;;;;10.53;9.53;;;;;;;15.65;53.67;101132.88;6115610;28;20236;-59
2021/05/01 15:25:56;;;;;;;12.40;11.40;;;;;;;15.87;50.82;101130.59;6116464;28;20618;-58
2021/05/01 15:29:17;;;;;;;11.27;10.27;;;;;;;15.91;52.13;101140.09;6120873;29;20235;-58
2021/05/01 15:32:38;;;;;;;14.53;13.23;;;;;;;15.65;51.54;101143.38;6118598;28;20315;-56
2021/05/01 15:36:00;;;;;;;13.40;12.20;;;;;;;15.07;53.19;101150.00;6106090;28;20231;-56
2021/05/01 15:39:21;;;;;;;14.30;13.10;;;;;;;15.01;53.14;101140.50;6110031;29;20227;-59